sensor_id;sensor_type;location;lat;lon;timestamp;pressure;altitude;pressure_sealevel;temperature;humidity
78613;BME280;67933;51.060;3.638;2023-04-30T00:00:10;102455.44;;;4.94;92.71
78613;BME280;67933;51.060;3.638;2023-04-30T00:02:36;102456.38;;;4.87;93.02
78613;BME280;67933;51.060;3.638;2023-04-30T00:05:02;102459.03;;;4.82;93.10
78613;BME280;67933;51.060;3.638;2023-04-30T00:07:28;102458.22;;;4.74;93.02
78613;BME280;67933;51.060;3.638;2023-04-30T00:09:54;102455.66;;;4.67;92.60
78613;BME280;67933;51.060;3.638;2023-04-30T00:12:20;102454.81;;;4.63;93.23
78613;BME280;67933;51.060;3.638;2023-04-30T00:14:46;102445.19;;;4.59;93.07
78613;BME280;67933;51.060;3.638;2023-04-30T00:17:11;102458.34;;;4.59;93.09
78613;BME280;67933;51.060;3.638;2023-04-30T00:19:36;102451.38;;;4.55;93.27
78613;BME280;67933;51.060;3.638;2023-04-30T00:22:02;102449.63;;;4.51;93.04
78613;BME280;67933;51.060;3.638;2023-04-30T00:24:28;102454.00;;;4.50;93.25
78613;BME280;67933;51.060;3.638;2023-04-30T00:26:53;102447.88;;;4.50;93.39
78613;BME280;67933;51.060;3.638;2023-04-30T00:29:18;102454.88;;;4.51;93.38
78613;BME280;67933;51.060;3.638;2023-04-30T00:31:44;102455.81;;;4.48;93.19
78613;BME280;67933;51.060;3.638;2023-04-30T00:34:09;102451.44;;;4.44;93.61
78613;BME280;67933;51.060;3.638;2023-04-30T00:36:35;102451.47;;;4.40;93.45
78613;BME280;67933;51.060;3.638;2023-04-30T00:39:01;102459.34;;;4.38;93.45
78613;BME280;67933;51.060;3.638;2023-04-30T00:41:27;102454.16;;;4.31;93.35
78613;BME280;67933;51.060;3.638;2023-04-30T00:43:53;102452.41;;;4.26;93.32
78613;BME280;67933;51.060;3.638;2023-04-30T00:46:18;102452.41;;;4.30;93.83
78613;BME280;67933;51.060;3.638;2023-04-30T00:48:44;102448.91;;;4.28;93.62
78613;BME280;67933;51.060;3.638;2023-04-30T00:51:09;102448.03;;;4.27;93.54
78613;BME280;67933;51.060;3.638;2023-04-30T00:53:37;102441.94;;;4.25;93.47
78613;BME280;67933;51.060;3.638;2023-04-30T00:56:03;102451.53;;;4.28;93.44
78613;BME280;67933;51.060;3.638;2023-04-30T00:58:29;102448.06;;;4.25;93.59
78613;BME280;67933;51.060;3.638;2023-04-30T01:00:55;102444.56;;;4.25;93.52
78613;BME280;67933;51.060;3.638;2023-04-30T01:03:22;102454.19;;;4.24;93.64
78613;BME280;67933;51.060;3.638;2023-04-30T01:05:47;102450.69;;;4.22;93.72
78613;BME280;67933;51.060;3.638;2023-04-30T01:08:12;102450.69;;;4.19;93.47
78613;BME280;67933;51.060;3.638;2023-04-30T01:10:50;102441.97;;;4.17;93.17
78613;BME280;67933;51.060;3.638;2023-04-30T01:16:14;102452.50;;;4.13;93.69
78613;BME280;67933;51.060;3.638;2023-04-30T01:18:47;102449.03;;;4.09;93.68
78613;BME280;67933;51.060;3.638;2023-04-30T01:21:14;102443.78;;;4.09;93.99
78613;BME280;67933;51.060;3.638;2023-04-30T01:24:12;102445.56;;;4.01;93.51
78613;BME280;67933;51.060;3.638;2023-04-30T01:29:07;102454.38;;;3.85;93.62
78613;BME280;67933;51.060;3.638;2023-04-30T01:31:33;102447.38;;;3.84;93.96
78613;BME280;67933;51.060;3.638;2023-04-30T01:33:59;102448.25;;;3.80;93.90
78613;BME280;67933;51.060;3.638;2023-04-30T01:36:49;102447.38;;;3.79;93.68
78613;BME280;67933;51.060;3.638;2023-04-30T01:39:38;102457.88;;;3.81;93.81
78613;BME280;67933;51.060;3.638;2023-04-30T01:42:15;102450.84;;;3.92;94.59
78613;BME280;67933;51.060;3.638;2023-04-30T01:51:00;102449.97;;;3.92;94.53
78613;BME280;67933;51.060;3.638;2023-04-30T01:53:39;102450.88;;;3.86;94.06
78613;BME280;67933;51.060;3.638;2023-04-30T01:56:10;102460.50;;;3.84;94.27
78613;BME280;67933;51.060;3.638;2023-04-30T01:58:37;102460.50;;;3.82;94.09
78613;BME280;67933;51.060;3.638;2023-04-30T02:01:06;102454.38;;;3.80;94.06
78613;BME280;67933;51.060;3.638;2023-04-30T02:03:32;102456.13;;;3.84;94.58
78613;BME280;67933;51.060;3.638;2023-04-30T02:05:57;102452.59;;;3.90;94.28
78613;BME280;67933;51.060;3.638;2023-04-30T02:08:23;102454.94;;;4.43;95.95
78613;BME280;67933;51.060;3.638;2023-04-30T02:10:49;102443.19;;;4.91;95.23
78613;BME280;67933;51.060;3.638;2023-04-30T02:13:14;102448.81;;;5.43;93.23
78613;BME280;67933;51.060;3.638;2023-04-30T02:15:40;102445.72;;;5.85;90.76
78613;BME280;67933;51.060;3.638;2023-04-30T02:18:05;102449.13;;;5.96;89.48
78613;BME280;67933;51.060;3.638;2023-04-30T02:20:30;102448.28;;;5.94;89.33
78613;BME280;67933;51.060;3.638;2023-04-30T02:22:56;102439.50;;;5.93;88.87
78613;BME280;67933;51.060;3.638;2023-04-30T02:25:22;102446.41;;;6.02;88.73
78613;BME280;67933;51.060;3.638;2023-04-30T02:27:47;102443.56;;;6.17;88.25
78613;BME280;67933;51.060;3.638;2023-04-30T02:30:15;102441.84;;;6.13;87.63
78613;BME280;67933;51.060;3.638;2023-04-30T02:32:41;102445.53;;;6.03;87.87
78613;BME280;67933;51.060;3.638;2023-04-30T02:35:07;102445.72;;;5.85;88.02
78613;BME280;67933;51.060;3.638;2023-04-30T02:37:32;102445.91;;;5.69;88.85
78613;BME280;67933;51.060;3.638;2023-04-30T02:39:58;102443.34;;;5.65;89.27
78613;BME280;67933;51.060;3.638;2023-04-30T02:42:23;102445.03;;;5.69;89.22
78613;BME280;67933;51.060;3.638;2023-04-30T02:44:48;102440.59;;;5.72;88.98
78613;BME280;67933;51.060;3.638;2023-04-30T02:47:14;102423.97;;;5.67;88.97
78613;BME280;67933;51.060;3.638;2023-04-30T02:49:39;102437.00;;;5.79;88.93
78613;BME280;67933;51.060;3.638;2023-04-30T02:52:05;102431.47;;;6.02;88.29
78613;BME280;67933;51.060;3.638;2023-04-30T02:54:33;102428.63;;;6.19;87.06
78613;BME280;67933;51.060;3.638;2023-04-30T02:56:59;102425.91;;;6.22;86.57
78613;BME280;67933;51.060;3.638;2023-04-30T02:59:25;102428.69;;;6.13;86.65
78613;BME280;67933;51.060;3.638;2023-04-30T03:01:51;102432.38;;;6.01;86.96
78613;BME280;67933;51.060;3.638;2023-04-30T03:04:16;102423.69;;;5.95;87.83
78613;BME280;67933;51.060;3.638;2023-04-30T03:06:42;102436.13;;;5.79;87.76
78613;BME280;67933;51.060;3.638;2023-04-30T03:09:07;102442.47;;;5.64;88.18
78613;BME280;67933;51.060;3.638;2023-04-30T03:11:32;102431.16;;;5.56;88.79
78613;BME280;67933;51.060;3.638;2023-04-30T03:14:01;102429.38;;;5.57;89.11
78613;BME280;67933;51.060;3.638;2023-04-30T03:16:27;102437.19;;;5.64;88.85
78613;BME280;67933;51.060;3.638;2023-04-30T03:18:55;102444.16;;;5.68;88.80
78613;BME280;67933;51.060;3.638;2023-04-30T03:21:20;102438.06;;;5.63;88.81
78613;BME280;67933;51.060;3.638;2023-04-30T03:23:45;102428.59;;;5.47;89.11
78613;BME280;67933;51.060;3.638;2023-04-30T03:26:11;102430.47;;;5.36;89.42
78613;BME280;67933;51.060;3.638;2023-04-30T03:28:36;102433.25;;;5.21;89.95
78613;BME280;67933;51.060;3.638;2023-04-30T03:31:01;102433.34;;;5.12;90.66
78613;BME280;67933;51.060;3.638;2023-04-30T03:33:31;102431.69;;;5.03;90.72
78613;BME280;67933;51.060;3.638;2023-04-30T03:35:57;102432.66;;;4.94;90.92
78613;BME280;67933;51.060;3.638;2023-04-30T03:38:22;102421.25;;;4.94;91.23
78613;BME280;67933;51.060;3.638;2023-04-30T03:40:48;102426.53;;;4.89;91.00
78613;BME280;67933;51.060;3.638;2023-04-30T03:43:13;102434.50;;;4.83;90.88
78613;BME280;67933;51.060;3.638;2023-04-30T03:45:38;102429.31;;;4.73;91.43
78613;BME280;67933;51.060;3.638;2023-04-30T03:48:04;102432.88;;;4.65;91.70
78613;BME280;67933;51.060;3.638;2023-04-30T03:50:29;102433.84;;;4.54;92.08
78613;BME280;67933;51.060;3.638;2023-04-30T03:52:55;102426.91;;;4.47;92.35
78613;BME280;67933;51.060;3.638;2023-04-30T03:55:20;102424.31;;;4.41;92.59
78613;BME280;67933;51.060;3.638;2023-04-30T03:57:46;102419.94;;;4.38;92.95
78613;BME280;67933;51.060;3.638;2023-04-30T04:00:11;102423.47;;;4.34;93.15
78613;BME280;67933;51.060;3.638;2023-04-30T04:02:41;102423.44;;;4.40;93.42
78613;BME280;67933;51.060;3.638;2023-04-30T04:05:08;102422.56;;;4.38;93.40
78613;BME280;67933;51.060;3.638;2023-04-30T04:07:34;102419.94;;;4.38;93.59
78613;BME280;67933;51.060;3.638;2023-04-30T04:09:59;102433.91;;;4.42;94.26
78613;BME280;67933;51.060;3.638;2023-04-30T04:12:24;102427.78;;;4.43;94.15
78613;BME280;67933;51.060;3.638;2023-04-30T04:14:50;102431.28;;;4.46;93.87
78613;BME280;67933;51.060;3.638;2023-04-30T04:17:16;102436.53;;;4.42;93.85
78613;BME280;67933;51.060;3.638;2023-04-30T04:19:42;102428.72;;;4.36;93.91
78613;BME280;67933;51.060;3.638;2023-04-30T04:22:07;102431.38;;;4.30;93.79
78613;BME280;67933;51.060;3.638;2023-04-30T04:24:32;102436.69;;;4.23;93.90
78613;BME280;67933;51.060;3.638;2023-04-30T04:26:58;102435.81;;;4.20;94.27
78613;BME280;67933;51.060;3.638;2023-04-30T04:29:26;102440.19;;;4.22;94.04
78613;BME280;67933;51.060;3.638;2023-04-30T04:31:52;102432.31;;;4.25;94.44
78613;BME280;67933;51.060;3.638;2023-04-30T04:34:19;102429.63;;;4.29;94.36
78613;BME280;67933;51.060;3.638;2023-04-30T04:36:44;102441.91;;;4.26;94.10
78613;BME280;67933;51.060;3.638;2023-04-30T04:39:10;102440.16;;;4.29;94.61
78613;BME280;67933;51.060;3.638;2023-04-30T04:41:35;102444.53;;;4.30;94.36
78613;BME280;67933;51.060;3.638;2023-04-30T04:44:01;102437.47;;;4.35;94.66
78613;BME280;67933;51.060;3.638;2023-04-30T04:46:30;102431.34;;;4.39;94.93
78613;BME280;67933;51.060;3.638;2023-04-30T04:48:56;102439.16;;;4.43;95.14
78613;BME280;67933;51.060;3.638;2023-04-30T04:51:22;102438.28;;;4.46;94.67
78613;BME280;67933;51.060;3.638;2023-04-30T04:53:48;102449.66;;;4.48;94.85
78613;BME280;67933;51.060;3.638;2023-04-30T04:56:13;102444.38;;;4.54;94.89
78613;BME280;67933;51.060;3.638;2023-04-30T04:58:40;102450.44;;;4.59;95.13
78613;BME280;67933;51.060;3.638;2023-04-30T05:01:05;102446.88;;;4.72;95.09
78613;BME280;67933;51.060;3.638;2023-04-30T05:03:31;102450.22;;;4.89;95.17
78613;BME280;67933;51.060;3.638;2023-04-30T05:05:57;102438.72;;;5.01;95.01
78613;BME280;67933;51.060;3.638;2023-04-30T05:08:23;102448.25;;;5.11;94.98
78613;BME280;67933;51.060;3.638;2023-04-30T05:10:49;102447.28;;;5.20;94.82
78613;BME280;67933;51.060;3.638;2023-04-30T05:13:14;102450.78;;;5.26;94.18
78613;BME280;67933;51.060;3.638;2023-04-30T05:15:39;102453.34;;;5.28;94.18
78613;BME280;67933;51.060;3.638;2023-04-30T05:18:05;102448.06;;;5.34;94.22
78613;BME280;67933;51.060;3.638;2023-04-30T05:20:30;102443.50;;;5.48;94.07
78613;BME280;67933;51.060;3.638;2023-04-30T05:22:56;102444.31;;;5.56;93.90
78613;BME280;67933;51.060;3.638;2023-04-30T05:25:21;102443.34;;;5.65;94.21
78613;BME280;67933;51.060;3.638;2023-04-30T05:27:47;102445.78;;;5.78;94.33
78613;BME280;67933;51.060;3.638;2023-04-30T05:30:12;102442.03;;;5.99;93.27
78613;BME280;67933;51.060;3.638;2023-04-30T05:32:40;102445.25;;;6.21;92.80
78613;BME280;67933;51.060;3.638;2023-04-30T05:35:06;102432.59;;;6.44;92.34
78613;BME280;67933;51.060;3.638;2023-04-30T05:37:31;102436.63;;;6.68;91.23
78613;BME280;67933;51.060;3.638;2023-04-30T05:39:57;102442.59;;;6.81;89.91
78613;BME280;67933;51.060;3.638;2023-04-30T05:42:22;102449.44;;;6.91;89.74
78613;BME280;67933;51.060;3.638;2023-04-30T05:44:47;102442.28;;;6.99;89.55
78613;BME280;67933;51.060;3.638;2023-04-30T05:47:14;102451.66;;;7.15;88.97
78613;BME280;67933;51.060;3.638;2023-04-30T05:49:39;102441.88;;;7.22;88.36
78613;BME280;67933;51.060;3.638;2023-04-30T05:52:05;102448.69;;;7.35;88.00
78613;BME280;67933;51.060;3.638;2023-04-30T05:54:30;102448.47;;;7.46;87.49
78613;BME280;67933;51.060;3.638;2023-04-30T05:56:56;102450.94;;;7.55;86.79
78613;BME280;67933;51.060;3.638;2023-04-30T05:59:22;102440.09;;;7.68;86.34
78613;BME280;67933;51.060;3.638;2023-04-30T06:01:47;102443.44;;;7.77;85.32
78613;BME280;67933;51.060;3.638;2023-04-30T06:04:12;102450.44;;;7.81;86.36
78613;BME280;67933;51.060;3.638;2023-04-30T06:06:38;102452.81;;;7.91;86.41
78613;BME280;67933;51.060;3.638;2023-04-30T06:09:03;102451.78;;;7.98;85.67
78613;BME280;67933;51.060;3.638;2023-04-30T06:11:29;102457.78;;;8.06;85.61
78613;BME280;67933;51.060;3.638;2023-04-30T06:13:55;102464.69;;;8.13;84.58
78613;BME280;67933;51.060;3.638;2023-04-30T06:16:21;102456.69;;;8.17;84.78
78613;BME280;67933;51.060;3.638;2023-04-30T06:18:46;102456.47;;;8.27;84.25
78613;BME280;67933;51.060;3.638;2023-04-30T06:21:12;102453.69;;;8.35;84.17
78613;BME280;67933;51.060;3.638;2023-04-30T06:23:37;102465.00;;;8.41;83.47
78613;BME280;67933;51.060;3.638;2023-04-30T06:26:02;102454.84;;;8.60;83.52
78613;BME280;67933;51.060;3.638;2023-04-30T06:28:28;102451.06;;;8.70;83.76
78613;BME280;67933;51.060;3.638;2023-04-30T06:30:54;102459.56;;;8.83;82.20
78613;BME280;67933;51.060;3.638;2023-04-30T06:33:20;102449.63;;;8.93;82.61
78613;BME280;67933;51.060;3.638;2023-04-30T06:35:45;102460.63;;;9.13;82.01
78613;BME280;67933;51.060;3.638;2023-04-30T06:38:12;102459.38;;;9.26;82.70
78613;BME280;67933;51.060;3.638;2023-04-30T06:40:37;102463.22;;;9.47;81.70
78613;BME280;67933;51.060;3.638;2023-04-30T06:43:02;102461.19;;;9.56;80.54
78613;BME280;67933;51.060;3.638;2023-04-30T06:45:28;102452.97;;;9.67;79.86
78613;BME280;67933;51.060;3.638;2023-04-30T06:47:53;102460.34;;;9.87;78.14
78613;BME280;67933;51.060;3.638;2023-04-30T06:50:19;102455.81;;;10.21;80.03
78613;BME280;67933;51.060;3.638;2023-04-30T06:52:46;102445.34;;;11.24;75.30
78613;BME280;67933;51.060;3.638;2023-04-30T06:55:11;102451.19;;;12.08;70.78
78613;BME280;67933;51.060;3.638;2023-04-30T06:57:37;102445.59;;;12.37;69.46
78613;BME280;67933;51.060;3.638;2023-04-30T07:00:05;102436.31;;;13.11;67.82
78613;BME280;67933;51.060;3.638;2023-04-30T07:02:31;102443.22;;;13.37;63.92
78613;BME280;67933;51.060;3.638;2023-04-30T07:04:56;102434.84;;;13.04;63.08
78613;BME280;67933;51.060;3.638;2023-04-30T07:07:22;102441.03;;;13.85;62.70
78613;BME280;67933;51.060;3.638;2023-04-30T07:09:47;102433.22;;;14.39;60.45
78613;BME280;67933;51.060;3.638;2023-04-30T07:12:13;102435.22;;;15.23;60.60
78613;BME280;67933;51.060;3.638;2023-04-30T07:14:38;102438.66;;;15.92;56.47
78613;BME280;67933;51.060;3.638;2023-04-30T07:17:04;102442.41;;;16.21;58.34
78613;BME280;67933;51.060;3.638;2023-04-30T07:19:30;102435.31;;;16.36;55.38
78613;BME280;67933;51.060;3.638;2023-04-30T07:21:56;102424.09;;;16.61;52.73
78613;BME280;67933;51.060;3.638;2023-04-30T07:24:22;102435.22;;;16.84;54.88
78613;BME280;67933;51.060;3.638;2023-04-30T07:26:47;102434.22;;;17.45;55.55
78613;BME280;67933;51.060;3.638;2023-04-30T07:29:13;102438.22;;;17.82;52.29
78613;BME280;67933;51.060;3.638;2023-04-30T07:31:38;102430.91;;;18.27;49.34
78613;BME280;67933;51.060;3.638;2023-04-30T07:34:03;102438.34;;;18.36;51.77
78613;BME280;67933;51.060;3.638;2023-04-30T07:36:29;102432.47;;;18.43;49.72
78613;BME280;67933;51.060;3.638;2023-04-30T07:38:55;102429.22;;;18.38;47.50
78613;BME280;67933;51.060;3.638;2023-04-30T07:41:20;102430.91;;;18.13;48.62
78613;BME280;67933;51.060;3.638;2023-04-30T07:43:46;102433.84;;;18.22;49.25
78613;BME280;67933;51.060;3.638;2023-04-30T07:46:11;102429.69;;;18.45;45.79
78613;BME280;67933;51.060;3.638;2023-04-30T07:48:36;102430.25;;;18.64;48.26
78613;BME280;67933;51.060;3.638;2023-04-30T07:51:03;102422.19;;;18.64;48.34
78613;BME280;67933;51.060;3.638;2023-04-30T07:53:29;102424.72;;;18.93;48.38
78613;BME280;67933;51.060;3.638;2023-04-30T07:55:55;102429.88;;;18.56;44.52
78613;BME280;67933;51.060;3.638;2023-04-30T07:58:20;102432.81;;;18.52;45.17
78613;BME280;67933;51.060;3.638;2023-04-30T08:00:45;102433.81;;;18.36;46.18
78613;BME280;67933;51.060;3.638;2023-04-30T08:03:11;102432.81;;;18.25;48.23
78613;BME280;67933;51.060;3.638;2023-04-30T08:05:37;102431.91;;;18.79;49.60
78613;BME280;67933;51.060;3.638;2023-04-30T08:08:03;102435.06;;;19.76;48.66
78613;BME280;67933;51.060;3.638;2023-04-30T08:10:28;102425.84;;;20.53;48.81
78613;BME280;67933;51.060;3.638;2023-04-30T08:12:53;102435.00;;;20.87;44.54
78613;BME280;67933;51.060;3.638;2023-04-30T08:15:19;102429.06;;;21.06;40.94
78613;BME280;67933;51.060;3.638;2023-04-30T08:17:48;102425.34;;;20.96;44.68
78613;BME280;67933;51.060;3.638;2023-04-30T08:20:13;102432.75;;;21.16;43.46
78613;BME280;67933;51.060;3.638;2023-04-30T08:22:39;102424.81;;;20.91;43.74
78613;BME280;67933;51.060;3.638;2023-04-30T08:25:05;102428.25;;;21.17;42.54
78613;BME280;67933;51.060;3.638;2023-04-30T08:27:30;102431.09;;;21.26;42.08
78613;BME280;67933;51.060;3.638;2023-04-30T08:29:56;102430.31;;;21.70;42.31
78613;BME280;67933;51.060;3.638;2023-04-30T08:32:22;102429.22;;;22.29;37.92
78613;BME280;67933;51.060;3.638;2023-04-30T08:34:47;102426.06;;;22.67;36.23
78613;BME280;67933;51.060;3.638;2023-04-30T08:37:14;102418.72;;;22.46;41.20
78613;BME280;67933;51.060;3.638;2023-04-30T08:39:39;102418.41;;;22.17;37.28
78613;BME280;67933;51.060;3.638;2023-04-30T08:42:08;102427.28;;;21.97;37.38
78613;BME280;67933;51.060;3.638;2023-04-30T08:44:34;102417.75;;;22.90;39.86
78613;BME280;67933;51.060;3.638;2023-04-30T08:47:05;102406.94;;;23.53;36.46
78613;BME280;67933;51.060;3.638;2023-04-30T08:49:31;102409.81;;;23.40;36.90
78613;BME280;67933;51.060;3.638;2023-04-30T08:51:57;102411.47;;;23.31;38.71
78613;BME280;67933;51.060;3.638;2023-04-30T08:54:24;102413.22;;;23.84;35.48
78613;BME280;67933;51.060;3.638;2023-04-30T08:56:50;102420.63;;;23.82;33.79
78613;BME280;67933;51.060;3.638;2023-04-30T08:59:15;102407.94;;;23.82;36.60
78613;BME280;67933;51.060;3.638;2023-04-30T09:01:41;102411.47;;;23.73;37.25
78613;BME280;67933;51.060;3.638;2023-04-30T09:04:06;102415.09;;;23.83;36.78
78613;BME280;67933;51.060;3.638;2023-04-30T09:06:32;102413.13;;;24.35;37.34
78613;BME280;67933;51.060;3.638;2023-04-30T09:09:08;102404.00;;;23.65;33.26
78613;BME280;67933;51.060;3.638;2023-04-30T09:11:33;102406.63;;;24.16;38.07
78613;BME280;67933;51.060;3.638;2023-04-30T09:14:00;102401.72;;;24.79;35.66
78613;BME280;67933;51.060;3.638;2023-04-30T09:16:27;102408.47;;;24.95;37.59
78613;BME280;67933;51.060;3.638;2023-04-30T09:18:57;102400.63;;;24.91;37.53
78613;BME280;67933;51.060;3.638;2023-04-30T09:21:34;102395.56;;;24.48;34.88
78613;BME280;67933;51.060;3.638;2023-04-30T09:24:01;102398.47;;;24.85;36.79
78613;BME280;67933;51.060;3.638;2023-04-30T09:26:32;102397.75;;;24.83;34.14
78613;BME280;67933;51.060;3.638;2023-04-30T09:28:58;102402.31;;;24.83;33.72
78613;BME280;67933;51.060;3.638;2023-04-30T09:31:26;102395.44;;;24.00;33.60
78613;BME280;67933;51.060;3.638;2023-04-30T09:33:52;102397.34;;;24.19;32.41
78613;BME280;67933;51.060;3.638;2023-04-30T09:36:19;102397.00;;;23.42;34.37
78613;BME280;67933;51.060;3.638;2023-04-30T09:38:44;102394.47;;;24.11;34.21
78613;BME280;67933;51.060;3.638;2023-04-30T09:41:26;102392.88;;;24.39;35.71
78613;BME280;67933;51.060;3.638;2023-04-30T09:43:55;102380.25;;;25.34;32.71
78613;BME280;67933;51.060;3.638;2023-04-30T09:46:29;102386.75;;;25.23;34.48
78613;BME280;67933;51.060;3.638;2023-04-30T09:48:59;102395.03;;;24.64;33.28
78613;BME280;67933;51.060;3.638;2023-04-30T09:51:25;102396.44;;;22.11;34.75
78613;BME280;67933;51.060;3.638;2023-04-30T09:53:52;102381.16;;;24.48;32.56
78613;BME280;67933;51.060;3.638;2023-04-30T09:56:20;102379.13;;;24.21;30.72
78613;BME280;67933;51.060;3.638;2023-04-30T09:58:50;102389.63;;;24.93;31.75
78613;BME280;67933;51.060;3.638;2023-04-30T10:01:17;102374.03;;;24.76;31.03
78613;BME280;67933;51.060;3.638;2023-04-30T10:03:42;102391.19;;;24.76;29.54
78613;BME280;67933;51.060;3.638;2023-04-30T10:06:14;102380.00;;;25.18;31.90
78613;BME280;67933;51.060;3.638;2023-04-30T10:08:50;102380.63;;;24.92;32.14
78613;BME280;67933;51.060;3.638;2023-04-30T10:11:19;102375.59;;;25.63;32.42
78613;BME280;67933;51.060;3.638;2023-04-30T10:14:02;102372.31;;;25.97;29.87
78613;BME280;67933;51.060;3.638;2023-04-30T10:17:13;102371.03;;;25.64;30.67
78613;BME280;67933;51.060;3.638;2023-04-30T10:19:33;102368.97;;;25.39;31.55
78613;BME280;67933;51.060;3.638;2023-04-30T10:22:00;102359.25;;;26.28;27.95
78613;BME280;67933;51.060;3.638;2023-04-30T10:24:26;102362.63;;;26.39;27.14
78613;BME280;67933;51.060;3.638;2023-04-30T10:26:52;102357.00;;;26.59;27.97
78613;BME280;67933;51.060;3.638;2023-04-30T10:29:19;102354.03;;;27.31;29.17
78613;BME280;67933;51.060;3.638;2023-04-30T10:31:46;102344.31;;;27.54;26.90
78613;BME280;67933;51.060;3.638;2023-04-30T10:34:30;102349.28;;;27.59;26.42
78613;BME280;67933;51.060;3.638;2023-04-30T10:37:06;102348.75;;;27.30;26.63
78613;BME280;67933;51.060;3.638;2023-04-30T10:39:33;102341.06;;;26.99;25.60
78613;BME280;67933;51.060;3.638;2023-04-30T10:42:04;102342.38;;;27.81;33.00
78613;BME280;67933;51.060;3.638;2023-04-30T10:44:35;102336.72;;;27.14;26.92
78613;BME280;67933;51.060;3.638;2023-04-30T10:47:02;102325.47;;;26.21;26.81
78613;BME280;67933;51.060;3.638;2023-04-30T10:49:28;102329.63;;;26.42;26.91
78613;BME280;67933;51.060;3.638;2023-04-30T10:51:58;102321.47;;;26.60;29.49
78613;BME280;67933;51.060;3.638;2023-04-30T10:54:26;102318.09;;;26.84;25.41
78613;BME280;67933;51.060;3.638;2023-04-30T10:57:00;102316.56;;;26.64;25.88
78613;BME280;67933;51.060;3.638;2023-04-30T10:59:36;102309.28;;;27.08;27.01
78613;BME280;67933;51.060;3.638;2023-04-30T11:02:02;102301.91;;;26.82;24.04
78613;BME280;67933;51.060;3.638;2023-04-30T11:04:28;102304.56;;;26.21;26.28
78613;BME280;67933;51.060;3.638;2023-04-30T11:07:01;102303.78;;;25.93;24.92
78613;BME280;67933;51.060;3.638;2023-04-30T11:09:43;102287.47;;;27.08;23.81
78613;BME280;67933;51.060;3.638;2023-04-30T11:14:39;102293.38;;;26.24;23.14
78613;BME280;67933;51.060;3.638;2023-04-30T11:17:05;102293.28;;;25.98;23.85
78613;BME280;67933;51.060;3.638;2023-04-30T11:19:31;102290.56;;;25.44;23.06
78613;BME280;67933;51.060;3.638;2023-04-30T11:24:52;102287.47;;;24.53;26.58
78613;BME280;67933;51.060;3.638;2023-04-30T11:27:22;102280.34;;;24.43;26.81
78613;BME280;67933;51.060;3.638;2023-04-30T11:29:48;102275.81;;;25.46;27.10
78613;BME280;67933;51.060;3.638;2023-04-30T11:32:15;102265.59;;;26.30;29.21
78613;BME280;67933;51.060;3.638;2023-04-30T11:34:42;102266.47;;;26.57;25.00
78613;BME280;67933;51.060;3.638;2023-04-30T11:37:14;102254.28;;;26.43;26.76
78613;BME280;67933;51.060;3.638;2023-04-30T11:39:41;102256.72;;;26.72;27.64
78613;BME280;67933;51.060;3.638;2023-04-30T11:42:07;102264.63;;;25.59;27.71
78613;BME280;67933;51.060;3.638;2023-04-30T11:44:33;102258.97;;;25.33;27.31
78613;BME280;67933;51.060;3.638;2023-04-30T11:46:59;102260.63;;;25.53;28.55
78613;BME280;67933;51.060;3.638;2023-04-30T11:49:26;102251.59;;;25.62;26.69
78613;BME280;67933;51.060;3.638;2023-04-30T11:51:51;102234.06;;;25.47;29.05
78613;BME280;67933;51.060;3.638;2023-04-30T11:54:17;102243.34;;;25.72;27.11
78613;BME280;67933;51.060;3.638;2023-04-30T11:56:47;102240.44;;;26.80;28.33
78613;BME280;67933;51.060;3.638;2023-04-30T11:59:13;102229.66;;;26.96;27.07
78613;BME280;67933;51.060;3.638;2023-04-30T12:01:40;102233.59;;;27.36;28.10
78613;BME280;67933;51.060;3.638;2023-04-30T12:04:06;102235.59;;;26.48;24.49
78613;BME280;67933;51.060;3.638;2023-04-30T12:06:32;102232.47;;;27.12;27.33
78613;BME280;67933;51.060;3.638;2023-04-30T12:08:59;102236.53;;;27.84;26.50
78613;BME280;67933;51.060;3.638;2023-04-30T12:11:26;102232.13;;;27.49;22.92
78613;BME280;67933;51.060;3.638;2023-04-30T12:13:59;102222.16;;;26.11;24.21
78613;BME280;67933;51.060;3.638;2023-04-30T12:16:27;102224.00;;;27.15;27.05
78613;BME280;67933;51.060;3.638;2023-04-30T12:18:53;102221.03;;;27.43;26.37
78613;BME280;67933;51.060;3.638;2023-04-30T12:21:20;102213.47;;;26.95;23.89
78613;BME280;67933;51.060;3.638;2023-04-30T12:23:46;102207.00;;;26.44;26.39
78613;BME280;67933;51.060;3.638;2023-04-30T12:26:12;102214.09;;;26.01;27.64
78613;BME280;67933;51.060;3.638;2023-04-30T12:28:38;102215.97;;;26.36;25.42
78613;BME280;67933;51.060;3.638;2023-04-30T12:31:04;102209.84;;;26.86;24.67
78613;BME280;67933;51.060;3.638;2023-04-30T12:33:30;102209.38;;;26.91;25.09
78613;BME280;67933;51.060;3.638;2023-04-30T12:35:57;102203.31;;;27.39;27.89
78613;BME280;67933;51.060;3.638;2023-04-30T12:38:23;102199.44;;;26.56;22.79
78613;BME280;67933;51.060;3.638;2023-04-30T12:40:50;102200.06;;;25.34;23.93
78613;BME280;67933;51.060;3.638;2023-04-30T12:43:17;102207.13;;;24.80;25.42
78613;BME280;67933;51.060;3.638;2023-04-30T12:45:53;102192.50;;;26.00;28.55
78613;BME280;67933;51.060;3.638;2023-04-30T12:48:22;102191.25;;;27.07;25.92
78613;BME280;67933;51.060;3.638;2023-04-30T12:50:58;102188.97;;;26.95;22.90
78613;BME280;67933;51.060;3.638;2023-04-30T12:53:25;102186.88;;;26.19;27.58
78613;BME280;67933;51.060;3.638;2023-04-30T12:56:10;102188.63;;;25.03;26.23
78613;BME280;67933;51.060;3.638;2023-04-30T12:58:37;102181.50;;;25.29;25.32
78613;BME280;67933;51.060;3.638;2023-04-30T13:01:08;102185.72;;;25.68;28.04
78613;BME280;67933;51.060;3.638;2023-04-30T13:03:34;102182.81;;;26.67;23.65
78613;BME280;67933;51.060;3.638;2023-04-30T13:06:00;102178.19;;;25.62;24.85
78613;BME280;67933;51.060;3.638;2023-04-30T13:08:26;102177.38;;;23.93;26.88
78613;BME280;67933;51.060;3.638;2023-04-30T13:10:52;102168.53;;;23.53;27.33